tititudorancea.com
Station Historical Data
Daily Summary for January 3, 2018 Units:  Metric    English   Both
« Previous Day
Next Day »
Daily Weekly Monthly Yearly Custom
  High: Low: Average:
Temperature: -17.8 °C 9.2 °C 16.2 °C
Dew Point: -17.8 °C 7.7 °C 9.3 °C
Humidity: Humidity % 36 % 67 %
Wind Speed: 0 km/h 0 km/h 10.5 km/h
Wind Gust: 0 km/h - -
Wind:- - SSW
Pressure: 0 hPa 1011.7 hPa -
Precipitation: 0 mm    
Historical Graphs
 
 
Ararat weather Find more about Weather in Ararat, AU


 



 


Tabular Data for January 3, 2018
Time Temperature Dew Point Pressure Wind Wind Speed Wind Gust Humidity Rainfall Rate (Hourly)
-17.8 °C -17.8 °C 0 hPa Calm     Humidity % 0 mm
00:01 12.7 °C 9.5 °C 1012.4 hPa South 5.8 km/h 11.3 km/h 81 % 0 mm
00:02 12.7 °C 9.5 °C 1012.4 hPa North 4.5 km/h 11.1 km/h 81 % 0 mm
00:05 12.7 °C 9.3 °C 1012.4 hPa South 1.6 km/h 7.4 km/h 80 % 0 mm
00:10 12.6 °C 9.4 °C 1012.4 hPa North 4.2 km/h 5.6 km/h 81 % 0 mm
00:13 12.6 °C 9.4 °C 1012.4 hPa South 6.6 km/h 16.7 km/h 81 % 0 mm
00:18 12.5 °C 9.3 °C 1012.4 hPa South 6 km/h 14.8 km/h 81 % 0 mm
00:23 12.5 °C 9.5 °C 1012.4 hPa North 5.3 km/h 9.7 km/h 82 % 0 mm
00:24 12.5 °C 9.5 °C 1012.4 hPa South 6.4 km/h 11.1 km/h 82 % 0 mm
00:29 12.5 °C 9.5 °C 1012.4 hPa South 2.9 km/h 5.6 km/h 82 % 0 mm
00:30 12.5 °C 9.5 °C 1012.4 hPa South 6.3 km/h 9.7 km/h 82 % 0 mm
00:31 12.6 °C 9.6 °C 1012.4 hPa South 6.6 km/h 9.3 km/h 82 % 0 mm
00:36 12.6 °C 9.6 °C 1012.4 hPa South 7.7 km/h 11.1 km/h 82 % 0 mm
00:40 12.6 °C 9.6 °C 1012.4 hPa SSW 12.2 km/h 18.5 km/h 82 % 0 mm
00:45 12.6 °C 9.6 °C 1012.4 hPa SSW 8.5 km/h 13 km/h 82 % 0 mm
00:52 12.6 °C 9.6 °C 1012.4 hPa South 9.3 km/h 20.4 km/h 82 % 0 mm
00:53 12.6 °C 9.6 °C 1012.4 hPa South 6.9 km/h 11.3 km/h 82 % 0 mm
00:58 12.6 °C 9.7 °C 1012.4 hPa North 9.3 km/h 14.8 km/h 83 % 0 mm
01:03 12.5 °C 9.7 °C 1012.4 hPa SSW 7.9 km/h 11.1 km/h 83 % 0 mm
01:09 12.4 °C 9.6 °C 1012.4 hPa South 5.6 km/h 11.1 km/h 83 % 0 mm
01:12 12.3 °C 9.5 °C 1012.4 hPa SSW 13.7 km/h 18.5 km/h 83 % 0 mm
01:13 12.4 °C 9.6 °C 1012.4 hPa SSW 12.4 km/h 18.5 km/h 83 % 0 mm
01:18 12.3 °C 9.7 °C 1012.4 hPa SSW 10.6 km/h 13 km/h 84 % 0 mm
01:21 12.2 °C 9.6 °C 1012.4 hPa SSW 7.6 km/h 13 km/h 84 % 0 mm
01:23 12.2 °C 9.6 °C 1012.4 hPa SSW 10.9 km/h 16.7 km/h 84 % 0 mm
01:28 12.2 °C 9.7 °C 1012.4 hPa SSW 9 km/h 14.8 km/h 85 % 0 mm
01:30 12.2 °C 9.7 °C 1012.4 hPa SSW 14 km/h 14.8 km/h 85 % 0 mm
01:34 12.2 °C 9.7 °C 1012.4 hPa SSW 7.2 km/h 14.8 km/h 85 % 0 mm
01:36 12.2 °C 9.8 °C 1012.4 hPa SSW 6.9 km/h 9.3 km/h 85 % 0 mm
01:40 12.2 °C 9.8 °C 1012.4 hPa SSW 11.3 km/h 16.7 km/h 85 % 0 mm
01:41 12.2 °C 9.8 °C 1012.4 hPa SSW 5.6 km/h 13 km/h 85 % 0 mm
01:46 12.2 °C 9.8 °C 1012.4 hPa SSW 7.1 km/h 11.1 km/h 85 % 0 mm
01:51 12.2 °C 9.8 °C 1012.4 hPa South 5.5 km/h 9.3 km/h 85 % 0 mm
01:52 12.2 °C 9.8 °C 1012.4 hPa North 7.2 km/h 9.3 km/h 85 % 0 mm
01:57 12.2 °C 9.7 °C 1012.1 hPa North 15.4 km/h 16.1 km/h 85 % 0 mm
02:01 12.1 °C 9.7 °C 1012.1 hPa North 6.9 km/h 6.9 km/h 85 % 0 mm
02:02 12.1 °C 9.6 °C 1012.1 hPa North 10.8 km/h 10.8 km/h 85 % 0 mm
02:08 11.9 °C 9.7 °C 1012.1 hPa SSW 8.7 km/h 9.3 km/h 86 % 0 mm
02:11 11.9 °C 9.6 °C 1012.4 hPa SSW 13.8 km/h 18.5 km/h 86 % 0 mm
02:16 11.8 °C 9.6 °C 1012.1 hPa SSW 7.4 km/h 16.7 km/h 86 % 0 mm
02:21 11.7 °C 9.4 °C 1012.1 hPa SSW 6.4 km/h 14.8 km/h 86 % 0 mm
02:22 11.7 °C 9.6 °C 1012.1 hPa SSW 10.6 km/h 16.1 km/h 87 % 0 mm
02:23 11.7 °C 9.4 °C 1012.1 hPa SSW 8 km/h 16.7 km/h 86 % 0 mm
02:29 11.6 °C 9.5 °C 1012.1 hPa SSW 14 km/h 18.5 km/h 87 % 0 mm
02:35 11.5 °C 9.4 °C 1012.1 hPa North 8.9 km/h 13 km/h 87 % 0 mm
02:37 11.4 °C 9.3 °C 1012.1 hPa SSW 6.8 km/h 13 km/h 87 % 0 mm
02:42 11.4 °C 9.4 °C 1012.1 hPa SSW 6.9 km/h 16.7 km/h 88 % 0 mm
02:44 11.4 °C 9.4 °C 1012.1 hPa SSW 9.2 km/h 14.8 km/h 88 % 0 mm
02:47 11.3 °C 9.4 °C 1012.1 hPa SSW 4.8 km/h 9.7 km/h 88 % 0 mm
02:49 11.3 °C 9.4 °C 1012.1 hPa North 7.6 km/h 14.8 km/h 88 % 0 mm
02:53 11.3 °C 9.4 °C 1011.7 hPa North 5.8 km/h 13 km/h 88 % 0 mm
02:56 11.2 °C 9.3 °C 1011.7 hPa North 8.2 km/h 13 km/h 88 % 0 mm
03:01 11.2 °C 9.3 °C 1011.7 hPa SSW 8.5 km/h 11.1 km/h 88 % 0 mm
03:05 11.1 °C 9.2 °C 1011.7 hPa SSW 8.5 km/h 9.3 km/h 88 % 0 mm
03:07 11.1 °C 9.2 °C 1011.7 hPa SSW 8.9 km/h 11.1 km/h 88 % 0 mm
03:11 11 °C 9.3 °C 1011.7 hPa SSW 5 km/h 5.6 km/h 89 % 0 mm
03:13 11 °C 9.3 °C 1011.7 hPa North 10.3 km/h 16.7 km/h 89 % 0 mm
03:18 11 °C 9.3 °C 1011.7 hPa SSW 8.7 km/h 11.1 km/h 89 % 0 mm
03:20 10.9 °C 9.2 °C 1011.7 hPa North 10.5 km/h 13 km/h 89 % 0 mm
03:25 10.9 °C 9.2 °C 1011.7 hPa North 8 km/h 11.1 km/h 89 % 0 mm
03:26 10.9 °C 9.2 °C 1012.1 hPa North 6.1 km/h 7.4 km/h 89 % 0 mm
03:31 10.9 °C 9.2 °C 1012.1 hPa North 5.5 km/h 9.3 km/h 89 % 0 mm
03:36 10.9 °C 9.3 °C 1012.1 hPa SSW 8.9 km/h 12.9 km/h 90 % 0 mm
03:41 10.9 °C 9.4 °C 1012.1 hPa SSW 9.7 km/h 11.1 km/h 90 % 0 mm
03:43 11 °C 9.4 °C 1012.1 hPa North 10.9 km/h 14.5 km/h 90 % 0 mm
03:48 11.1 °C 9.3 °C 1011.7 hPa SSW 9.7 km/h 11.3 km/h 89 % 0 mm
03:53 11 °C 9.3 °C 1012.1 hPa SSW 8.5 km/h 11.3 km/h 89 % 0 mm
03:55 11.1 °C 9.3 °C 1012.1 hPa SSW 6.3 km/h 13 km/h 89 % 0 mm
04:00 11.1 °C 9.3 °C 1012.1 hPa SSW 8 km/h 14.8 km/h 89 % 0 mm
04:01 11.1 °C 9.3 °C 1012.1 hPa SSW 9.5 km/h 14.8 km/h 89 % 0 mm
04:06 11.1 °C 9.4 °C 1012.1 hPa SSW 8.7 km/h 14.8 km/h 89 % 0 mm
04:07 11.1 °C 9.4 °C 1012.1 hPa SSW 8.4 km/h 11.3 km/h 89 % 0 mm
04:12 11.1 °C 9.4 °C 1012.1 hPa SSW 8.7 km/h 13 km/h 89 % 0 mm
04:13 11.1 °C 9.3 °C 1012.1 hPa SSW 9.5 km/h 16.7 km/h 89 % 0 mm
04:14 11.1 °C 9.3 °C 1012.1 hPa SSW 9.3 km/h 14.8 km/h 89 % 0 mm
04:19 11 °C 9.3 °C 1012.1 hPa SSW 11.1 km/h 18.5 km/h 89 % 0 mm
04:24 10.9 °C 9.2 °C 1012.1 hPa SSW 10.3 km/h 18.5 km/h 89 % 0 mm
04:29 10.9 °C 9.2 °C 1012.1 hPa SSW 8.7 km/h 14.8 km/h 89 % 0 mm
04:31 10.9 °C 9.3 °C 1012.1 hPa North 7.7 km/h 14.8 km/h 90 % 0 mm
04:35 10.8 °C 9.3 °C 1012.1 hPa South 9 km/h 11.1 km/h 90 % 0 mm
04:40 10.8 °C 9.2 °C 1012.4 hPa North 4.8 km/h 9.3 km/h 90 % 0 mm
04:45 10.7 °C 9.2 °C 1012.1 hPa SSW 6 km/h 9.3 km/h 90 % 0 mm
04:50 10.7 °C 9.2 °C 1012.1 hPa SSW 7.6 km/h 11.1 km/h 90 % 0 mm
04:53 10.7 °C 9.1 °C 1012.1 hPa SSW 3.7 km/h 7.4 km/h 90 % 0 mm
04:58 10.6 °C 9 °C 1012.1 hPa North 5.6 km/h 11.1 km/h 90 % 0 mm
04:59 10.6 °C 9 °C 1012.1 hPa North 7.1 km/h 9.3 km/h 90 % 0 mm
05:02 10.5 °C 8.9 °C 1012.4 hPa SSW 5.3 km/h 9.3 km/h 90 % 0 mm
05:05 10.5 °C 8.9 °C 1012.4 hPa SSW 6 km/h 11.1 km/h 90 % 0 mm
05:11 10.4 °C 8.9 °C 1012.4 hPa SSW 6.6 km/h 9.3 km/h 90 % 0 mm
05:14 10.4 °C 8.8 °C 1012.4 hPa SSW 3.4 km/h 5.6 km/h 90 % 0 mm
05:17 10.3 °C 8.8 °C 1012.4 hPa North 2.6 km/h 5.6 km/h 90 % 0 mm
05:20 10.2 °C 8.6 °C 1012.4 hPa North 4 km/h 5.6 km/h 90 % 0 mm
05:22 10.1 °C 8.6 °C 1012.4 hPa North 2.7 km/h 5.6 km/h 90 % 0 mm
05:27 10.1 °C 8.7 °C 1012.4 hPa North 4.3 km/h 8 km/h 91 % 0 mm
05:28 10.1 °C 8.7 °C 1012.4 hPa SSW 4.8 km/h 5.6 km/h 91 % 0 mm
05:29 10.1 °C 8.7 °C 1012.4 hPa SSW 3.2 km/h 5.6 km/h 91 % 0 mm
05:33 9.9 °C 8.4 °C 1012.4 hPa North 4 km/h 5.6 km/h 90 % 0 mm
05:37 9.8 °C 8.4 °C 1012.4 hPa North 2.4 km/h 5.6 km/h 91 % 0 mm
05:38 9.8 °C 8.4 °C 1012.4 hPa SSW 2.4 km/h 5.6 km/h 91 % 0 mm
05:43 9.6 °C 8.1 °C 1012.4 hPa North 4.5 km/h 5.6 km/h 90 % 0 mm
05:45 9.5 °C 8.1 °C 1012.4 hPa North 2.6 km/h 5.6 km/h 91 % 0 mm
05:47 9.4 °C 7.8 °C 1012.4 hPa South 2.7 km/h 5.6 km/h 90 % 0 mm
05:50 9.3 °C 7.9 °C 1012.4 hPa North 2.6 km/h 5.6 km/h 91 % 0 mm
05:55 9.2 °C 7.8 °C 1012.8 hPa SSW 0.6 km/h 3.7 km/h 91 % 0 mm
05:56 9.2 °C 7.8 °C 1012.8 hPa North 0.6 km/h 3.7 km/h 91 % 0 mm
06:00 9.2 °C 8 °C 1012.8 hPa SSW 0.5 km/h 1.9 km/h 92 % 0 mm
06:03 9.3 °C 8.1 °C 1012.8 hPa SSW 1.6 km/h 3.7 km/h 92 % 0 mm
06:08 9.3 °C 8.1 °C 1012.8 hPa SSW 3.1 km/h 5.6 km/h 92 % 0 mm
06:10 9.4 °C 8.3 °C 1012.8 hPa SSW 3.9 km/h 5.6 km/h 93 % 0 mm
06:16 9.7 °C 8.6 °C 1012.8 hPa South 2.4 km/h 5.6 km/h 93 % 0 mm
06:17 9.7 °C 8.7 °C 1013.1 hPa North 3.7 km/h 5.6 km/h 93 % 0 mm
06:21 9.7 °C 8.7 °C 1013.1 hPa SSW 4 km/h 5.6 km/h 93 % 0 mm
06:25 9.8 °C 8.7 °C 1012.8 hPa North 0.8 km/h 3.7 km/h 93 % 0 mm
06:26 9.8 °C 8.7 °C 1012.8 hPa South 1.8 km/h 3.7 km/h 93 % 0 mm
06:31 9.8 °C 8.8 °C 1013.1 hPa SSW 3.5 km/h 5.6 km/h 93 % 0 mm
06:35 9.9 °C 8.8 °C 1013.1 hPa SSW 5.3 km/h 7.4 km/h 93 % 0 mm
06:36 9.9 °C 8.8 °C 1013.1 hPa SSW 4 km/h 7.4 km/h 93 % 0 mm
06:41 9.9 °C 8.9 °C 1013.1 hPa North 1.9 km/h 7.4 km/h 93 % 0 mm
06:46 10.2 °C 9.2 °C 1013.4 hPa SSW 0.8 km/h 1.9 km/h 94 % 0 mm
06:49 10.3 °C 9.3 °C 1013.4 hPa SSW 1.1 km/h 5.6 km/h 94 % 0 mm
06:54 10.6 °C 9.6 °C 1013.4 hPa North 4 km/h 5.6 km/h 94 % 0 mm
06:57 10.8 °C 9.8 °C 1013.4 hPa South 8.2 km/h 16.1 km/h 94 % 0 mm
06:58 10.8 °C 9.9 °C 1013.4 hPa SSW 12.4 km/h 16.7 km/h 94 % 0 mm
07:03 11.1 °C 10.2 °C 1013.4 hPa SSW 8.5 km/h 13 km/h 94 % 0 mm
07:06 11.3 °C 10.2 °C 1013.4 hPa SSW 7.1 km/h 8 km/h 93 % 0 mm
07:11 11.4 °C 10.1 °C 1013.4 hPa SSW 5.5 km/h 9.3 km/h 92 % 0 mm
07:16 11.4 °C 10.2 °C 1013.4 hPa North 9.5 km/h 13 km/h 92 % 0 mm
07:20 11.6 °C 10.3 °C 1013.4 hPa SSW 7.7 km/h 11.1 km/h 92 % 0 mm
07:26 11.7 °C 10.3 °C 1013.4 hPa SSW 7.2 km/h 11.1 km/h 91 % 0 mm
07:27 11.7 °C 10.3 °C 1013.4 hPa SSW 8.9 km/h 11.1 km/h 91 % 0 mm
07:32 11.8 °C 10.3 °C 1013.8 hPa SSW 4.2 km/h 7.4 km/h 91 % 0 mm
07:33 11.8 °C 10.3 °C 1013.8 hPa SSW 4.8 km/h 8 km/h 91 % 0 mm
07:35 11.8 °C 10.3 °C 1013.8 hPa SSW 8.9 km/h 11.1 km/h 91 % 0 mm
07:40 11.9 °C 10.3 °C 1013.8 hPa SSW 10 km/h 13 km/h 90 % 0 mm
07:45 12.1 °C 10.4 °C 1013.8 hPa SSW 8.5 km/h 14.8 km/h 90 % 0 mm
07:46 12.1 °C 10.5 °C 1013.8 hPa SSW 7.1 km/h 13 km/h 90 % 0 mm
07:51 12.3 °C 10.7 °C 1013.8 hPa SSW 11.6 km/h 16.1 km/h 90 % 0 mm
07:56 12.5 °C 10.7 °C 1014.1 hPa SSW 10.5 km/h 16.7 km/h 89 % 0 mm
07:58 12.6 °C 10.8 °C 1014.1 hPa South 10.6 km/h 16.7 km/h 89 % 0 mm
08:03 12.7 °C 10.8 °C 1014.1 hPa SSW 6.6 km/h 11.3 km/h 88 % 0 mm
08:08 12.8 °C 10.7 °C 1014.1 hPa SSW 18 km/h 24.1 km/h 87 % 0 mm
08:09 12.8 °C 10.7 °C 1014.1 hPa SSW 17.2 km/h 24.1 km/h 87 % 0 mm
08:10 12.9 °C 10.8 °C 1014.1 hPa SSW 16.9 km/h 22.2 km/h 87 % 0 mm
08:15 13.1 °C 10.9 °C 1014.4 hPa SSW 13.8 km/h 19.3 km/h 87 % 0 mm
08:16 13.1 °C 10.8 °C 1014.4 hPa SSW 16.9 km/h 24.1 km/h 86 % 0 mm
08:17 13.1 °C 10.8 °C 1014.4 hPa SSW 15.4 km/h 16.7 km/h 86 % 0 mm
08:21 13.1 °C 10.8 °C 1014.4 hPa South 14 km/h 20.4 km/h 86 % 0 mm
08:22 13.2 °C 10.9 °C 1014.4 hPa South 16.6 km/h 20.9 km/h 86 % 0 mm
08:27 13.3 °C 10.8 °C 1014.4 hPa South 14.6 km/h 27.8 km/h 85 % 0 mm
08:29 13.4 °C 10.7 °C 1014.4 hPa South 11.4 km/h 18.5 km/h 84 % 0 mm
08:32 13.4 °C 10.6 °C 1014.8 hPa South 17.5 km/h 25.9 km/h 83 % 0 mm
08:37 13.4 °C 10.6 °C 1014.8 hPa South 12.7 km/h 22.2 km/h 83 % 0 mm
08:40 13.4 °C 10.6 °C 1014.8 hPa SSW 13.5 km/h 19.3 km/h 83 % 0 mm
08:45 13.6 °C 10.4 °C 1014.8 hPa SSW 18.5 km/h 18.5 km/h 81 % 0 mm
08:50 13.8 °C 10.6 °C 1014.8 hPa SSE 11.9 km/h 19.3 km/h 81 % 0 mm
08:55 14.2 °C 10.6 °C 1014.8 hPa SSE 10.9 km/h 16.1 km/h 79 % 0 mm
08:56 14.2 °C 10.6 °C 1014.8 hPa South 13.7 km/h 19.3 km/h 79 % 0 mm
08:59 14.3 °C 10.7 °C 1014.8 hPa South 9.7 km/h 16.7 km/h 79 % 0 mm
09:01 14.5 °C 10.9 °C 1014.8 hPa SSW 8.4 km/h 11.1 km/h 79 % 0 mm
09:06 14.7 °C 10.7 °C 1014.8 hPa South 10.8 km/h 16.7 km/h 77 % 0 mm
09:08 14.7 °C 10.7 °C 1014.8 hPa South 12.9 km/h 18.5 km/h 77 % 0 mm
09:13 14.8 °C 10.6 °C 1014.8 hPa SSW 14 km/h 20.4 km/h 76 % 0 mm
09:18 14.8 °C 10.6 °C 1015.1 hPa SSW 12.2 km/h 20.4 km/h 76 % 0 mm
09:19 14.8 °C 10.6 °C 1015.1 hPa SW 14.2 km/h 18.5 km/h 76 % 0 mm
09:24 14.8 °C 10.7 °C 1015.1 hPa South 11.7 km/h 20.9 km/h 76 % 0 mm
09:27 14.8 °C 10.7 °C 1015.1 hPa South 17.9 km/h 24.1 km/h 76 % 0 mm
09:30 14.7 °C 10.6 °C 1015.1 hPa SSW 11.7 km/h 18.5 km/h 76 % 0 mm
09:35 14.7 °C 10.9 °C 1015.1 hPa South 6.4 km/h 11.1 km/h 78 % 0 mm
09:36 14.7 °C 10.9 °C 1015.1 hPa South 5.5 km/h 9.3 km/h 78 % 0 mm
09:41 15 °C 11.2 °C 1015.1 hPa South 8.2 km/h 16.7 km/h 78 % 0 mm
09:46 15.6 °C 11.2 °C 1015.1 hPa South 10.5 km/h 18.5 km/h 75 % 0 mm
09:48 15.7 °C 11.1 °C 1015.1 hPa South 11.1 km/h 18.5 km/h 74 % 0 mm
09:50 15.7 °C 10.9 °C 1015.1 hPa South 11.9 km/h 18.5 km/h 73 % 0 mm
09:54 15.9 °C 11.1 °C 1015.1 hPa SSE 13.5 km/h 19.3 km/h 73 % 0 mm
09:59 15.8 °C 10.8 °C 1015.1 hPa North 14.2 km/h 20.4 km/h 72 % 0 mm
10:00 15.8 °C 10.8 °C 1015.1 hPa South 15 km/h 24.1 km/h 72 % 0 mm
10:05 15.6 °C 10.4 °C 1015.1 hPa South 17.2 km/h 20.9 km/h 71 % 0 mm
10:08 15.4 °C 10.8 °C 1015.1 hPa South 11.6 km/h 19.3 km/h 74 % 0 mm
10:12 15.3 °C 10.7 °C 1015.5 hPa SSW 15 km/h 22.2 km/h 74 % 0 mm
10:14 15.4 °C 10.8 °C 1015.5 hPa SSW 17.2 km/h 20.9 km/h 74 % 0 mm
10:19 15.4 °C 10.6 °C 1015.5 hPa North 13.7 km/h 25.9 km/h 73 % 0 mm
10:20 15.4 °C 10.4 °C 1015.5 hPa SW 13.7 km/h 18.5 km/h 72 % 0 mm
10:25 15.4 °C 10.2 °C 1015.5 hPa SSW 15.3 km/h 22.2 km/h 71 % 0 mm
10:26 15.4 °C 9.9 °C 1015.5 hPa North 14.3 km/h 24.1 km/h 70 % 0 mm
10:31 15.4 °C 9.8 °C 1015.5 hPa SSW 11.9 km/h 16.7 km/h 69 % 0 mm
10:32 15.5 °C 9.8 °C 1015.5 hPa SW 12.2 km/h 24.1 km/h 69 % 0 mm
10:37 15.7 °C 9.8 °C 1015.5 hPa SSW 9.7 km/h 20.4 km/h 68 % 0 mm
10:39 15.8 °C 9.9 °C 1015.5 hPa SSW 11.3 km/h 18.5 km/h 68 % 0 mm
10:44 16 °C 9.9 °C 1015.5 hPa SSW 16.3 km/h 24.1 km/h 67 % 0 mm
10:45 16.1 °C 10 °C 1015.5 hPa South 14.6 km/h 18.5 km/h 67 % 0 mm
10:49 16.2 °C 9.8 °C 1015.5 hPa SSW 17.1 km/h 22.2 km/h 66 % 0 mm
10:54 16.4 °C 10.1 °C 1015.5 hPa South 16.9 km/h 22.2 km/h 66 % 0 mm
10:59 16.5 °C 9.9 °C 1015.5 hPa SSW 13.4 km/h 20.4 km/h 65 % 0 mm
11:00 16.5 °C 9.9 °C 1015.5 hPa SSW 12.9 km/h 20.4 km/h 65 % 0 mm
11:01 16.6 °C 10.2 °C 1015.5 hPa SSW 11.1 km/h 18.5 km/h 66 % 0 mm
11:05 16.9 °C 10.1 °C 1015.5 hPa South 8.2 km/h 18.5 km/h 64 % 0 mm
11:10 17.2 °C 10.1 °C 1015.5 hPa SSW 9.2 km/h 18.5 km/h 63 % 0 mm
11:12 17.3 °C 10.4 °C 1015.5 hPa SSW 7.1 km/h 9.7 km/h 64 % 0 mm
11:13 17.4 °C 10.6 °C 1015.1 hPa SE 14.3 km/h 20.9 km/h 64 % 0 mm
11:18 17.7 °C 9.3 °C 1015.1 hPa South 9.7 km/h 18.5 km/h 58 % 0 mm
11:23 17.7 °C 9.6 °C 1015.1 hPa South 4.8 km/h 9.7 km/h 59 % 0 mm
11:24 17.8 °C 9.7 °C 1015.1 hPa SSW 6.1 km/h 9.3 km/h 59 % 0 mm
11:25 17.8 °C 9.7 °C 1015.1 hPa South 6 km/h 9.3 km/h 59 % 0 mm
11:30 18.3 °C 9.3 °C 1015.1 hPa SE 10.6 km/h 18.5 km/h 56 % 0 mm
11:31 18.3 °C 9.4 °C 1015.1 hPa SE 9.7 km/h 14.8 km/h 56 % 0 mm
11:35 18.4 °C 8.7 °C 1015.1 hPa SSE 6.4 km/h 18.5 km/h 53 % 0 mm
11:40 18.2 °C 8.8 °C 1015.1 hPa SSW 12.2 km/h 20.4 km/h 54 % 0 mm
11:43 18.1 °C 8.9 °C 1015.1 hPa South 8.4 km/h 14.8 km/h 55 % 0 mm
11:48 18.6 °C 9.1 °C 1015.1 hPa SE 12.2 km/h 18.5 km/h 54 % 0 mm
11:53 19 °C 10 °C 1014.8 hPa WSW 14.3 km/h 22.2 km/h 56 % 0 mm
11:58 19.2 °C 9.9 °C 1014.8 hPa South 11.3 km/h 16.7 km/h 55 % 0 mm
12:03 19.2 °C 9.9 °C 1015.1 hPa South 8 km/h 14.8 km/h 55 % 0 mm
12:05 19.1 °C 9.6 °C 1015.1 hPa SW 19.8 km/h 22.2 km/h 54 % 0 mm
12:08 18.7 °C 9.4 °C 1015.1 hPa SW 14.6 km/h 22.2 km/h 55 % 0 mm
12:10 18.6 °C 9.7 °C 1015.1 hPa SSE 10.1 km/h 20.4 km/h 56 % 0 mm
12:13 18.8 °C 9.6 °C 1015.1 hPa SSW 9.7 km/h 18.5 km/h 55 % 0 mm
12:14 18.9 °C 9.9 °C 1015.1 hPa SSW 13 km/h 16.7 km/h 56 % 0 mm
12:19 19.3 °C 9.4 °C 1015.1 hPa SSW 12.1 km/h 20.4 km/h 53 % 0 mm
12:22 19.2 °C 9.3 °C 1015.1 hPa SSW 6.4 km/h 9.3 km/h 53 % 0 mm
12:27 19.2 °C 8.6 °C 1015.1 hPa SSW 5.1 km/h 16.7 km/h 50 % 0 mm
12:29 19.2 °C 9.1 °C 1015.1 hPa SW 13.7 km/h 25.7 km/h 52 % 0 mm
12:34 19.4 °C 8.4 °C 1015.1 hPa South 6 km/h 13 km/h 49 % 0 mm
12:36 19.6 °C 8.9 °C 1015.1 hPa SSW 10.8 km/h 16.7 km/h 50 % 0 mm
12:39 19.7 °C 8.7 °C 1015.1 hPa SSW 11.6 km/h 16.7 km/h 49 % 0 mm
12:42 19.7 °C 8.4 °C 1014.8 hPa SSW 10.3 km/h 16.7 km/h 48 % 0 mm
12:47 19.8 °C 8.5 °C 1014.8 hPa WSW 12.1 km/h 18.5 km/h 48 % 0 mm
12:48 19.9 °C 8.6 °C 1014.8 hPa WSW 7.4 km/h 14.5 km/h 48 % 0 mm
12:52 19.9 °C 8.6 °C 1014.8 hPa SW 12.6 km/h 20.4 km/h 48 % 0 mm
12:53 19.9 °C 8.2 °C 1014.8 hPa SW 6.9 km/h 18.5 km/h 47 % 0 mm
12:54 19.9 °C 8.6 °C 1015.1 hPa SSW 5.5 km/h 5.6 km/h 48 % 0 mm
12:59 20.3 °C 8.9 °C 1014.8 hPa SSW 10.6 km/h 16.1 km/h 48 % 0 mm
13:03 20.2 °C 8.8 °C 1015.1 hPa South 15.8 km/h 29.6 km/h 48 % 0 mm
13:08 20.2 °C 9.1 °C 1014.8 hPa SW 13.7 km/h 18.5 km/h 49 % 0 mm
13:12 20.3 °C 8.6 °C 1014.8 hPa SSW 8.7 km/h 13 km/h 47 % 0 mm
13:14 20.3 °C 8.7 °C 1014.8 hPa SSW 9.7 km/h 14.8 km/h 47 % 0 mm
13:19 20.3 °C 8.7 °C 1014.8 hPa WSW 17.5 km/h 25.9 km/h 47 % 0 mm
13:23 20.3 °C 8.3 °C 1014.8 hPa SW 13.4 km/h 18.5 km/h 46 % 0 mm
13:24 20.2 °C 8.8 °C 1014.8 hPa SW 6 km/h 14.8 km/h 48 % 0 mm
13:29 20.4 °C 8.4 °C 1014.8 hPa SW 10.3 km/h 25.7 km/h 46 % 0 mm
13:31 20.4 °C 8.1 °C 1014.4 hPa SW 15.8 km/h 27.8 km/h 45 % 0 mm
13:36 20.7 °C 8 °C 1014.4 hPa WSW 12.7 km/h 18.5 km/h 44 % 0 mm
13:37 20.7 °C 8 °C 1014.4 hPa WSW 17.2 km/h 18.5 km/h 44 % 0 mm
13:42 20.8 °C 8.4 °C 1014.1 hPa South 8.9 km/h 18.5 km/h 45 % 0 mm
13:46 21.2 °C 8.8 °C 1014.1 hPa SSW 8.9 km/h 14.8 km/h 45 % 0 mm
13:48 21.1 °C 8.4 °C 1014.1 hPa SSW 20.3 km/h 29.6 km/h 44 % 0 mm
13:53 21.2 °C 8.4 °C 1014.1 hPa SSE 12.6 km/h 22.2 km/h 44 % 0 mm
13:54 21.2 °C 8.8 °C 1014.1 hPa SSE 20 km/h 29.6 km/h 45 % 0 mm
13:57 21.7 °C 9.2 °C 1014.1 hPa SE 17.5 km/h 22.2 km/h 45 % 0 mm
14:00 21.8 °C 9 °C 1013.8 hPa SE 13.7 km/h 14.8 km/h 44 % 0 mm
14:05 22.1 °C 8.9 °C 1014.1 hPa SSW 15.1 km/h 20.4 km/h 43 % 0 mm
14:09 21.5 °C 8.4 °C 1014.1 hPa SSW 14.3 km/h 22.2 km/h 43 % 0 mm
14:15 21.7 °C 8.9 °C 1014.1 hPa SW 10.5 km/h 16.7 km/h 44 % 0 mm
14:20 21.7 °C 8.2 °C 1014.1 hPa North 16.7 km/h 22.2 km/h 42 % 0 mm
14:21 21.6 °C 8.5 °C 1014.1 hPa South 5.6 km/h 18.5 km/h 43 % 0 mm
14:26 21.9 °C 9.1 °C 1014.1 hPa South 7.7 km/h 14.8 km/h 44 % 0 mm
14:30 22.3 °C 8.7 °C 1014.1 hPa SSE 12.1 km/h 16.7 km/h 42 % 0 mm
14:35 22.3 °C 8.4 °C 1013.8 hPa SSW 18.7 km/h 24.1 km/h 41 % 0 mm
14:40 21.8 °C 8 °C 1013.8 hPa SW 14.2 km/h 22.2 km/h 41 % 0 mm
14:45 22.1 °C 8.6 °C 1013.8 hPa South 13.8 km/h 18.5 km/h 42 % 0 mm
14:49 22.1 °C 8.2 °C 1013.8 hPa SSE 8.2 km/h 13 km/h 41 % 0 mm
14:54 22.2 °C 8.3 °C 1013.8 hPa SSW 16.4 km/h 22.2 km/h 41 % 0 mm
14:56 22.4 °C 8.8 °C 1013.8 hPa South 9.8 km/h 18.5 km/h 42 % 0 mm
15:02 22.4 °C 8.5 °C 1013.8 hPa SSW 15 km/h 20.4 km/h 41 % 0 mm
15:03 22.4 °C 8.5 °C 1013.8 hPa SSW 14.6 km/h 20.4 km/h 41 % 0 mm
15:08 22.5 °C 7.8 °C 1013.8 hPa SW 16.3 km/h 27.8 km/h 39 % 0 mm
15:09 22.4 °C 7.7 °C 1013.8 hPa SSW 18 km/h 25.9 km/h 39 % 0 mm
15:14 22.3 °C 7.7 °C 1013.8 hPa SW 11.3 km/h 14.5 km/h 39 % 0 mm
15:16 22.6 °C 8.6 °C 1013.8 hPa SSW 12.7 km/h 14.8 km/h 41 % 0 mm
15:19 22.7 °C 8.4 °C 1013.8 hPa SW 12.6 km/h 18.5 km/h 40 % 0 mm
15:24 22.7 °C 8.1 °C 1013.8 hPa South 12.7 km/h 27.8 km/h 39 % 0 mm
15:29 23.1 °C 8.3 °C 1013.8 hPa SSW 14.2 km/h 18.5 km/h 39 % 0 mm
15:31 23.1 °C 7.9 °C 1013.8 hPa SSW 13.5 km/h 18.5 km/h 38 % 0 mm
15:34 22.9 °C 8.2 °C 1013.4 hPa North 12.4 km/h 14.5 km/h 39 % 0 mm
15:36 22.9 °C 8.2 °C 1013.4 hPa SSW 14.5 km/h 18.5 km/h 39 % 0 mm
15:41 22.7 °C 8.1 °C 1013.4 hPa North 15.1 km/h 18.5 km/h 39 % 0 mm
15:42 22.9 °C 8.6 °C 1013.4 hPa South 17.2 km/h 20.4 km/h 40 % 0 mm
15:47 23.1 °C 8.4 °C 1013.4 hPa SSW 14.3 km/h 24.1 km/h 39 % 0 mm
15:52 23.2 °C 8.5 °C 1013.4 hPa North 20.6 km/h 31.5 km/h 39 % 0 mm
15:54 23.3 °C 8.9 °C 1013.4 hPa SSW 14.5 km/h 20.4 km/h 40 % 0 mm
15:59 23.3 °C 8.2 °C 1013.4 hPa SSW 7.7 km/h 14.5 km/h 38 % 0 mm
16:00 23.3 °C 8.9 °C 1013.4 hPa South 11.4 km/h 16.1 km/h 40 % 0 mm
16:05 23.4 °C 8.3 °C 1013.4 hPa South 11.9 km/h 18.5 km/h 38 % 0 mm
16:07 23.5 °C 8.7 °C 1013.1 hPa South 18.2 km/h 24.1 km/h 39 % 0 mm
16:12 23.5 °C 8.3 °C 1013.4 hPa North 17.2 km/h 25.9 km/h 38 % 0 mm
16:14 23.4 °C 8.3 °C 1013.4 hPa SSW 11.6 km/h 16.7 km/h 38 % 0 mm
16:16 23.3 °C 8.2 °C 1013.4 hPa SSE 16.4 km/h 24.1 km/h 38 % 0 mm
16:20 23.5 °C 8.7 °C 1013.4 hPa South 9.5 km/h 18.5 km/h 39 % 0 mm
16:25 23.7 °C 8.6 °C 1013.4 hPa SSW 14.5 km/h 22.2 km/h 38 % 0 mm
16:27 23.8 °C 7.8 °C 1013.4 hPa SW 10.8 km/h 18.5 km/h 36 % 0 mm
16:31 23.9 °C 8.3 °C 1013.4 hPa WSW 10.3 km/h 20.4 km/h 37 % 0 mm
16:33 24.1 °C 8.1 °C 1013.4 hPa SW 10.8 km/h 16.7 km/h 36 % 0 mm
16:38 24 °C 8 °C 1013.4 hPa North 13 km/h 20.4 km/h 36 % 0 mm
16:40 24 °C 8 °C 1013.4 hPa SSW 13.8 km/h 18.5 km/h 36 % 0 mm
16:45 23.8 °C 8.2 °C 1013.4 hPa North 14.2 km/h 17.7 km/h 37 % 0 mm
16:48 23.7 °C 7.8 °C 1013.4 hPa SW 18.5 km/h 32.2 km/h 36 % 0 mm
16:53 23.8 °C 8.3 °C 1013.4 hPa South 11.9 km/h 25.9 km/h 37 % 0 mm
16:54 23.9 °C 7.9 °C 1013.4 hPa SSW 14 km/h 20.4 km/h 36 % 0 mm
16:59 23.7 °C 7.7 °C 1013.4 hPa SSW 15.9 km/h 20.4 km/h 36 % 0 mm
17:01 23.6 °C 8 °C 1013.4 hPa SSE 19.5 km/h 29.6 km/h 37 % 0 mm
17:06 23.7 °C 8.1 °C 1013.4 hPa SSW 17.1 km/h 31.5 km/h 37 % 0 mm
17:08 23.7 °C 8.1 °C 1013.4 hPa SSW 12.6 km/h 18.5 km/h 37 % 0 mm
17:13 23.7 °C 7.8 °C 1013.4 hPa South 19.3 km/h 25.9 km/h 36 % 0 mm
17:16 23.6 °C 7.7 °C 1013.4 hPa South 14.2 km/h 20.9 km/h 36 % 0 mm
17:21 23.7 °C 7.8 °C 1013.4 hPa SSW 19.3 km/h 29.6 km/h 36 % 0 mm
17:26 23.6 °C 8 °C 1013.4 hPa South 18.5 km/h 24.1 km/h 37 % 0 mm
17:31 23.4 °C 8.3 °C 1013.4 hPa SSW 15.3 km/h 22.2 km/h 38 % 0 mm
17:36 23.4 °C 8.3 °C 1013.4 hPa SSE 14.8 km/h 24.1 km/h 38 % 0 mm
17:37 23.3 °C 8.2 °C 1013.4 hPa SE 15 km/h 22.2 km/h 38 % 0 mm
17:39 23.4 °C 8.3 °C 1013.4 hPa SSW 21.2 km/h 21.2 km/h 38 % 0 mm
17:44 23.2 °C 8.1 °C 1013.4 hPa SW 15.8 km/h 16.7 km/h 38 % 0 mm
17:45 23.2 °C 8.4 °C 1013.4 hPa SSW 16.1 km/h 19.3 km/h 39 % 0 mm
17:50 23.3 °C 8.2 °C 1013.4 hPa SW 10.9 km/h 20.4 km/h 38 % 0 mm
17:51 23.3 °C 8.2 °C 1013.4 hPa SSW 18.8 km/h 24.1 km/h 38 % 0 mm
17:56 23.2 °C 8.1 °C 1013.4 hPa South 6.6 km/h 9.3 km/h 38 % 0 mm
17:57 23.3 °C 8.6 °C 1013.4 hPa SW 8.4 km/h 17.7 km/h 39 % 0 mm
18:02 23.5 °C 7.9 °C 1013.4 hPa SSW 17.4 km/h 25.9 km/h 37 % 0 mm
18:04 23.3 °C 8.2 °C 1013.4 hPa South 19.8 km/h 29.6 km/h 38 % 0 mm
18:09 23.2 °C 8.4 °C 1013.4 hPa SW 16.6 km/h 25.7 km/h 39 % 0 mm
18:13 23.4 °C 8.3 °C 1013.4 hPa South 11.4 km/h 22.2 km/h 38 % 0 mm
18:15 23.4 °C 8.7 °C 1013.4 hPa SSW 12.2 km/h 25.9 km/h 39 % 0 mm
18:19 23.4 °C 8.7 °C 1013.4 hPa South 13.4 km/h 14.8 km/h 39 % 0 mm
18:23 23.2 °C 8.5 °C 1013.4 hPa South 19.8 km/h 31.5 km/h 39 % 0 mm
18:25 23.1 °C 8.4 °C 1013.4 hPa SE 14.3 km/h 18.5 km/h 39 % 0 mm
18:27 23.1 °C 8.4 °C 1013.4 hPa South 13.4 km/h 24.1 km/h 39 % 0 mm
18:32 22.9 °C 8.6 °C 1013.4 hPa SSW 14.3 km/h 19.3 km/h 40 % 0 mm
18:36 22.8 °C 8.8 °C 1013.4 hPa SSE 11.9 km/h 18.5 km/h 41 % 0 mm
18:39 22.9 °C 8.9 °C 1013.4 hPa SSE 12.4 km/h 18.5 km/h 41 % 0 mm
18:43 22.7 °C 8.8 °C 1013.8 hPa SSW 21.1 km/h 29.6 km/h 41 % 0 mm
18:45 22.6 °C 8.7 °C 1013.8 hPa SW 13.7 km/h 19.3 km/h 41 % 0 mm
18:50 22.6 °C 9.1 °C 1013.8 hPa SSW 16.7 km/h 31.5 km/h 42 % 0 mm
18:55 22.7 °C 9.1 °C 1013.8 hPa SSW 16.7 km/h 24.1 km/h 42 % 0 mm
18:58 22.5 °C 8.9 °C 1013.8 hPa SSW 15.9 km/h 27.8 km/h 42 % 0 mm
19:00 22.4 °C 9.2 °C 1013.8 hPa South 13.4 km/h 18.5 km/h 43 % 0 mm
19:05 22.3 °C 9.1 °C 1013.8 hPa South 20.1 km/h 31.5 km/h 43 % 0 mm
19:07 22.1 °C 9.3 °C 1013.8 hPa South 19.3 km/h 29.6 km/h 44 % 0 mm
19:12 22.1 °C 9.3 °C 1013.8 hPa SSW 9.3 km/h 18.5 km/h 44 % 0 mm
19:17 21.8 °C 9.4 °C 1013.8 hPa South 16.3 km/h 27.8 km/h 45 % 0 mm
19:19 21.8 °C 9.3 °C 1014.1 hPa South 14.5 km/h 24.1 km/h 45 % 0 mm
19:23 21.7 °C 9.6 °C 1014.1 hPa SSE 15.3 km/h 27.8 km/h 46 % 0 mm
19:25 21.6 °C 9.5 °C 1014.1 hPa SSE 20.6 km/h 20.9 km/h 46 % 0 mm
19:30 21.3 °C 9.6 °C 1014.1 hPa SSE 16.6 km/h 22.2 km/h 47 % 0 mm
19:35 21.2 °C 9.4 °C 1014.1 hPa South 11.9 km/h 20.4 km/h 47 % 0 mm
19:36 21.2 °C 9.4 °C 1014.1 hPa SSW 15.8 km/h 20.4 km/h 47 % 0 mm
19:37 21.1 °C 9.7 °C 1014.1 hPa SSW 13.7 km/h 27.8 km/h 48 % 0 mm
19:40 21.1 °C 9.6 °C 1014.1 hPa South 14.3 km/h 18.5 km/h 48 % 0 mm
19:44 21 °C 9.6 °C 1014.4 hPa South 9.5 km/h 13 km/h 48 % 0 mm
19:47 20.8 °C 9.4 °C 1014.4 hPa South 16.4 km/h 27.8 km/h 48 % 0 mm
19:49 20.8 °C 9.7 °C 1014.4 hPa SSE 12.6 km/h 18.5 km/h 49 % 0 mm
19:53 20.6 °C 9.5 °C 1014.4 hPa SSE 12.7 km/h 29.6 km/h 49 % 0 mm
19:58 20.3 °C 9.6 °C 1014.4 hPa South 16.6 km/h 20.4 km/h 50 % 0 mm
20:01 20.2 °C 9.4 °C 1014.4 hPa South 18 km/h 27.8 km/h 50 % 0 mm
20:04 20 °C 9.6 °C 1014.8 hPa South 12.4 km/h 24.1 km/h 51 % 0 mm
20:05 20 °C 9.6 °C 1014.8 hPa South 15.3 km/h 20.4 km/h 51 % 0 mm
20:09 19.8 °C 9.6 °C 1014.8 hPa South 16.9 km/h 31.5 km/h 52 % 0 mm
20:11 19.7 °C 9.6 °C 1014.8 hPa SSE 10 km/h 25.9 km/h 52 % 0 mm
20:15 19.7 °C 9.8 °C 1014.8 hPa South 12.6 km/h 14.8 km/h 53 % 0 mm
20:17 19.6 °C 9.5 °C 1014.8 hPa SSW 16.1 km/h 24.1 km/h 52 % 0 mm
20:22 19.4 °C 9.8 °C 1014.8 hPa South 18.2 km/h 24.1 km/h 54 % 0 mm
20:27 19.1 °C 9.8 °C 1015.1 hPa South 12.6 km/h 18.5 km/h 55 % 0 mm
20:32 18.8 °C 9.9 °C 1015.1 hPa South 10.9 km/h 18.5 km/h 56 % 0 mm
20:34 18.7 °C 9.8 °C 1015.1 hPa South 15.8 km/h 30.6 km/h 56 % 0 mm
20:39 18.4 °C 10 °C 1015.1 hPa SSW 15.8 km/h 22.2 km/h 58 % 0 mm
20:40 18.4 °C 10 °C 1015.1 hPa South 16.1 km/h 25.9 km/h 58 % 0 mm
20:45 18.2 °C 10.1 °C 1015.5 hPa SSE 12.4 km/h 16.7 km/h 59 % 0 mm
20:50 17.9 °C 10.1 °C 1015.5 hPa SSW 14 km/h 18.5 km/h 60 % 0 mm
20:52 17.9 °C 10 °C 1015.5 hPa South 16.4 km/h 22.2 km/h 60 % 0 mm
20:57 17.7 °C 10.1 °C 1015.5 hPa SSE 14.6 km/h 20.4 km/h 61 % 0 mm
21:04 17.3 °C 10.2 °C 1015.5 hPa South 13.4 km/h 18.5 km/h 63 % 0 mm
21:06 17.3 °C 10.2 °C 1015.5 hPa South 12.2 km/h 18.5 km/h 63 % 0 mm
21:09 17.1 °C 10.2 °C 1015.5 hPa South 14 km/h 16.7 km/h 64 % 0 mm
21:14 16.9 °C 10.3 °C 1015.5 hPa SSE 9.7 km/h 12.9 km/h 65 % 0 mm
21:16 16.9 °C 10.3 °C 1015.5 hPa SSE 6.4 km/h 9.3 km/h 65 % 0 mm
21:21 16.7 °C 10.3 °C 1015.8 hPa South 5.1 km/h 14.8 km/h 66 % 0 mm
21:26 16.6 °C 10.4 °C 1015.8 hPa South 11.6 km/h 18.5 km/h 67 % 0 mm
21:27 16.6 °C 10.4 °C 1015.8 hPa South 8.5 km/h 16.7 km/h 67 % 0 mm
21:32 16.4 °C 10.4 °C 1015.8 hPa South 10.8 km/h 18.5 km/h 68 % 0 mm
21:33 16.4 °C 10.4 °C 1015.8 hPa South 9.2 km/h 13 km/h 68 % 0 mm
21:38 16.2 °C 10.5 °C 1015.8 hPa South 9.8 km/h 16.7 km/h 69 % 0 mm
21:43 16.1 °C 10.4 °C 1015.8 hPa South 5.1 km/h 13 km/h 69 % 0 mm
21:48 15.9 °C 10.5 °C 1015.8 hPa South 10.1 km/h 16.7 km/h 70 % 0 mm
21:53 15.8 °C 10.3 °C 1015.8 hPa South 10.6 km/h 14.8 km/h 70 % 0 mm
21:57 15.7 °C 10.4 °C 1016.1 hPa South 11.9 km/h 14.8 km/h 71 % 0 mm
21:59 15.6 °C 10.4 °C 1016.1 hPa South 8.9 km/h 16.7 km/h 71 % 0 mm
22:06 15.4 °C 10.2 °C 1016.1 hPa South 9.2 km/h 11.3 km/h 71 % 0 mm
22:10 15.4 °C 10.4 °C 1016.1 hPa South 10.3 km/h 13 km/h 72 % 0 mm
22:11 15.3 °C 10.3 °C 1016.1 hPa South 7.4 km/h 14.8 km/h 72 % 0 mm
22:16 15.2 °C 10.4 °C 1016.5 hPa South 8.7 km/h 13 km/h 73 % 0 mm
22:17 15.2 °C 10.4 °C 1016.5 hPa South 7.7 km/h 14.8 km/h 73 % 0 mm
22:22 15.1 °C 10.3 °C 1016.5 hPa South 11.9 km/h 14.5 km/h 73 % 0 mm
22:23 15.1 °C 10.3 °C 1016.5 hPa South 12.2 km/h 16.7 km/h 73 % 0 mm
22:28 15 °C 10.4 °C 1016.5 hPa North 9.2 km/h 13 km/h 74 % 0 mm
22:29 14.9 °C 10.3 °C 1016.5 hPa South 7.7 km/h 11.1 km/h 74 % 0 mm
22:34 14.9 °C 10.3 °C 1016.5 hPa South 2.9 km/h 11.1 km/h 74 % 0 mm
22:35 14.8 °C 10.2 °C 1016.5 hPa South 6.4 km/h 6.4 km/h 74 % 0 mm
22:40 14.7 °C 10.1 °C 1016.5 hPa South 10.5 km/h 13 km/h 74 % 0 mm
22:42 14.7 °C 10.1 °C 1016.5 hPa South 7.1 km/h 11.1 km/h 74 % 0 mm
22:48 14.6 °C 10.2 °C 1016.5 hPa South 6.1 km/h 13 km/h 75 % 0 mm
22:53 14.5 °C 10.1 °C 1016.5 hPa South 6.1 km/h 9.3 km/h 75 % 0 mm
22:54 14.4 °C 10.1 °C 1016.5 hPa South 7.1 km/h 11.1 km/h 75 % 0 mm
22:59 14.4 °C 10.2 °C 1016.5 hPa Calm     76 % 0 mm
23:04 14.3 °C 10.1 °C 1016.8 hPa South 3.4 km/h 9.3 km/h 76 % 0 mm
23:06 14.2 °C 10.1 °C 1016.5 hPa North 5.5 km/h 11.1 km/h 76 % 0 mm
23:09 14.2 °C 10 °C 1016.5 hPa North 5.1 km/h 8 km/h 76 % 0 mm
23:14 14.1 °C 10.1 °C 1016.5 hPa South 5.5 km/h 9.3 km/h 77 % 0 mm
23:15 14.1 °C 10.1 °C 1016.5 hPa South 5.8 km/h 7.4 km/h 77 % 0 mm
23:16 14.1 °C 10.1 °C 1016.5 hPa South 6.8 km/h 9.3 km/h 77 % 0 mm
23:20 14 °C 10.1 °C 1016.5 hPa South 6.8 km/h 9.3 km/h 77 % 0 mm
23:25 13.9 °C 9.9 °C 1016.5 hPa South 6.1 km/h 9.3 km/h 77 % 0 mm
23:26 13.9 °C 9.9 °C 1016.5 hPa South 5.8 km/h 8 km/h 77 % 0 mm
23:31 13.8 °C 9.9 °C 1016.5 hPa South 6.4 km/h 11.1 km/h 77 % 0 mm
23:36 13.8 °C 10 °C 1016.5 hPa South 8.2 km/h 9.3 km/h 78 % 0 mm
23:40 13.7 °C 9.9 °C 1016.5 hPa South 7.1 km/h 9.3 km/h 78 % 0 mm
23:41 13.7 °C 9.9 °C 1016.5 hPa South 4.8 km/h 11.3 km/h 78 % 0 mm
23:46 13.6 °C 9.8 °C 1016.8 hPa South 7.2 km/h 9.3 km/h 78 % 0 mm
23:47 13.6 °C 9.8 °C 1016.5 hPa North 6.8 km/h 9.3 km/h 78 % 0 mm
23:52 13.6 °C 9.8 °C 1016.5 hPa North 6.9 km/h 11.1 km/h 78 % 0 mm
23:57 13.4 °C 9.7 °C 1016.5 hPa South 9 km/h 11.3 km/h 78 % 0 mm
23:59 13.4 °C 9.7 °C 1016.5 hPa South 10.5 km/h 14.8 km/h 78 % 0 mm
Ararat Weather
Compliments of Weather Underground - 3.25 mb
Click here to send mail.


ABOUT

Live weather data from Ararat, Victoria, Australia, 3377
Data uploaded from Cumulus every 5 minutes to Weather Underground.
This site then downloads the raw data for formatting and display.
Metric and imperial data can be displayed. Graphs and historical data available.
Includes Sun and Moon times and rain image live from BOM.

Check out Ararat Weather on Facebook, Twitter and Google +

Help support ongoing costs by checking out the ads





Follow @AraratWeather